createdAt,value
2022-08-14T00:01:24.062Z,15.32
2022-08-14T00:03:50.981Z,15.10
2022-08-14T00:06:28.475Z,14.85
2022-08-14T00:08:59.313Z,15.10
2022-08-14T00:11:28.800Z,15.50
2022-08-14T00:13:58.466Z,11.75
2022-08-14T00:16:40.816Z,11.73
2022-08-14T00:19:18.660Z,10.43
2022-08-14T00:21:46.978Z,8.70
2022-08-14T00:24:13.667Z,7.13
2022-08-14T00:26:50.002Z,5.60
2022-08-14T00:29:21.302Z,4.85
2022-08-14T00:31:54.535Z,4.70
2022-08-14T00:34:36.777Z,5.50
2022-08-14T00:37:08.998Z,7.18
2022-08-14T00:39:35.489Z,9.48
2022-08-14T00:42:03.409Z,9.27
2022-08-14T00:44:32.937Z,10.25
2022-08-14T00:47:02.545Z,10.75
2022-08-14T00:49:30.052Z,10.77
2022-08-14T00:51:57.002Z,10.18
2022-08-14T00:54:25.064Z,11.88
2022-08-14T00:56:55.662Z,11.00
2022-08-14T00:59:24.955Z,11.68
2022-08-14T01:01:53.882Z,11.25
2022-08-14T01:04:37.963Z,11.45
2022-08-14T01:07:10.042Z,10.75
2022-08-14T01:09:37.589Z,10.35
2022-08-14T01:12:06.400Z,10.25
2022-08-14T01:14:34.739Z,9.77
2022-08-14T01:20:01.930Z,9.93
2022-08-14T01:22:31.518Z,9.88
2022-08-14T01:24:58.109Z,9.57
2022-08-14T01:27:25.233Z,10.57
2022-08-14T01:30:03.332Z,10.38
2022-08-14T01:32:37.402Z,11.07
2022-08-14T01:35:18.334Z,11.45
2022-08-14T01:37:56.158Z,10.90
2022-08-14T01:40:25.593Z,10.77
2022-08-14T01:42:59.878Z,12.48
2022-08-14T01:45:26.411Z,11.98
2022-08-14T01:48:03.463Z,11.88
2022-08-14T01:50:30.615Z,11.77
2022-08-14T01:53:01.220Z,11.35
2022-08-14T01:55:31.219Z,11.75
2022-08-14T01:58:18.212Z,11.18
2022-08-14T02:00:45.005Z,10.90
2022-08-14T02:03:16.161Z,11.55
2022-08-14T02:05:43.257Z,11.05
2022-08-14T02:08:10.694Z,10.88
2022-08-14T02:10:46.936Z,7.63
2022-08-14T02:13:17.412Z,9.43
2022-08-14T02:15:44.981Z,7.73
2022-08-14T02:18:15.291Z,7.15
2022-08-14T02:20:42.193Z,8.88
2022-08-14T02:23:09.145Z,8.38
2022-08-14T02:25:36.313Z,9.18
2022-08-14T02:28:25.584Z,9.02
2022-08-14T02:30:52.453Z,10.35
2022-08-14T02:33:19.342Z,10.60
2022-08-14T02:35:53.042Z,9.45
2022-08-14T02:38:30.338Z,10.38
2022-08-14T02:41:01.139Z,12.60
2022-08-14T02:43:36.412Z,12.30
2022-08-14T02:46:05.867Z,14.65
2022-08-14T02:49:01.830Z,14.43
2022-08-14T02:51:21.254Z,14.73
2022-08-14T02:53:49.343Z,14.13
2022-08-14T02:56:30.962Z,13.23
2022-08-14T02:59:08.217Z,13.98
2022-08-14T03:01:43.401Z,13.60
2022-08-14T03:04:20.558Z,14.00
2022-08-14T03:06:57.357Z,14.43
2022-08-14T03:09:42.380Z,15.88
2022-08-14T03:12:31.741Z,16.17
2022-08-14T03:15:02.678Z,15.18
2022-08-14T03:17:31.586Z,15.33
2022-08-14T03:20:07.726Z,15.18
2022-08-14T03:25:08.523Z,14.83
2022-08-14T03:27:48.475Z,14.10
2022-08-14T03:30:23.678Z,14.27
2022-08-14T03:32:50.148Z,13.43
2022-08-14T03:35:18.199Z,14.65
2022-08-14T03:39:12.796Z,12.90
2022-08-14T03:40:31.050Z,13.23
2022-08-14T03:42:57.488Z,13.20
2022-08-14T03:45:34.464Z,12.88
2022-08-14T03:48:30.245Z,15.18
2022-08-14T03:50:57.913Z,13.98
2022-08-14T03:53:26.264Z,13.05
2022-08-14T03:55:56.065Z,13.32
2022-08-14T04:01:04.717Z,13.73
2022-08-14T04:03:33.175Z,15.07
2022-08-14T04:06:04.784Z,14.45
2022-08-14T04:08:36.066Z,13.23
2022-08-14T04:11:02.790Z,12.02
2022-08-14T04:13:35.386Z,14.45
2022-08-14T04:16:06.898Z,14.05
2022-08-14T04:18:43.828Z,14.57
2022-08-14T04:21:12.387Z,14.82
2022-08-14T04:23:39.881Z,13.73
2022-08-14T04:26:14.215Z,13.82
2022-08-14T04:29:06.741Z,14.30
2022-08-14T04:32:58.211Z,14.52
2022-08-14T04:34:20.635Z,13.85
2022-08-14T04:37:08.867Z,15.45
2022-08-14T04:39:57.356Z,16.38
2022-08-14T04:42:47.241Z,16.00
2022-08-14T04:45:18.667Z,15.13
2022-08-14T04:48:03.714Z,16.52
2022-08-14T04:50:37.985Z,15.60
2022-08-14T04:53:12.919Z,15.43
2022-08-14T04:55:41.166Z,15.55
2022-08-14T04:58:09.526Z,15.70
2022-08-14T05:00:50.842Z,16.63
2022-08-14T05:03:20.950Z,15.77
2022-08-14T05:05:54.532Z,17.40
2022-08-14T05:08:31.691Z,17.60
2022-08-14T05:11:11.888Z,17.50
2022-08-14T05:14:08.265Z,17.35
2022-08-14T05:16:29.330Z,17.40
2022-08-14T05:19:24.664Z,17.80
2022-08-14T05:21:59.303Z,17.23
2022-08-14T05:24:29.321Z,17.30
2022-08-14T05:26:56.866Z,17.63
2022-08-14T05:29:26.306Z,16.90
2022-08-14T05:31:57.394Z,18.17
2022-08-14T05:34:31.716Z,20.38
2022-08-14T05:37:02.427Z,18.75
2022-08-14T05:41:57.458Z,18.23
2022-08-14T05:44:27.890Z,20.27
2022-08-14T05:46:56.772Z,20.27
2022-08-14T05:49:23.292Z,18.55
2022-08-14T05:51:59.644Z,19.70
2022-08-14T05:54:28.734Z,19.33
2022-08-14T05:57:05.428Z,18.88
2022-08-14T05:59:39.119Z,18.00
2022-08-14T06:02:11.033Z,18.45
2022-08-14T06:04:39.022Z,18.73
2022-08-14T06:07:06.184Z,18.35
2022-08-14T06:09:35.919Z,17.42
2022-08-14T06:12:10.661Z,18.10
2022-08-14T06:14:39.225Z,18.60
2022-08-14T06:17:06.717Z,18.33
2022-08-14T06:19:33.295Z,17.80
2022-08-14T06:21:59.858Z,19.27
2022-08-14T06:24:27.132Z,18.55
2022-08-14T06:26:56.680Z,17.90
2022-08-14T06:29:32.457Z,17.80
2022-08-14T06:32:37.716Z,16.50
2022-08-14T06:35:02.915Z,16.27
2022-08-14T06:37:57.199Z,16.25
2022-08-14T06:40:29.667Z,16.35
2022-08-14T06:43:03.297Z,16.45
2022-08-14T06:45:35.081Z,13.70
2022-08-14T06:48:06.077Z,14.15
2022-08-14T06:50:39.038Z,13.93
2022-08-14T06:53:05.598Z,13.55
2022-08-14T06:55:32.231Z,12.75
2022-08-14T06:57:58.969Z,13.25
2022-08-14T07:00:30.590Z,13.45
2022-08-14T07:03:17.156Z,12.98
2022-08-14T07:05:58.052Z,14.25
2022-08-14T07:08:31.378Z,13.55
2022-08-14T07:11:03.858Z,13.20
2022-08-14T07:13:31.096Z,12.95
2022-08-14T07:15:58.890Z,13.35
2022-08-14T07:18:28.776Z,13.63
2022-08-14T07:20:56.404Z,12.93
2022-08-14T07:23:24.131Z,11.63
2022-08-14T07:25:58.256Z,12.73
2022-08-14T07:28:31.956Z,11.90
2022-08-14T07:31:05.172Z,12.45
2022-08-14T07:33:50.759Z,11.63
2022-08-14T07:36:30.112Z,11.60
2022-08-14T07:39:12.495Z,10.30
2022-08-14T07:41:42.475Z,10.73
2022-08-14T07:44:29.635Z,9.88
2022-08-14T07:46:57.751Z,10.15
2022-08-14T07:49:24.605Z,9.93
2022-08-14T07:51:51.155Z,8.82
2022-08-14T07:54:23.241Z,9.98
2022-08-14T07:57:00.157Z,8.88
2022-08-14T07:59:41.937Z,9.18
2022-08-14T08:02:19.498Z,8.63
2022-08-14T08:04:52.982Z,7.72
2022-08-14T08:07:22.148Z,7.35
2022-08-14T08:09:53.436Z,7.90
2022-08-14T08:12:24.947Z,9.25
2022-08-14T08:15:07.058Z,8.63
2022-08-14T08:17:42.361Z,8.83
2022-08-14T08:20:15.823Z,8.73
2022-08-14T08:22:56.006Z,9.07
2022-08-14T08:27:58.404Z,9.07
2022-08-14T08:32:53.540Z,8.65
2022-08-14T08:35:23.442Z,8.93
2022-08-14T08:37:53.708Z,8.27
2022-08-14T08:40:42.216Z,9.65
2022-08-14T08:43:29.773Z,8.57
2022-08-14T08:46:18.648Z,8.73
2022-08-14T08:51:30.935Z,8.85
2022-08-14T08:54:01.309Z,8.13
2022-08-14T08:56:41.350Z,9.48
2022-08-14T08:59:34.282Z,8.07
2022-08-14T09:02:10.151Z,8.10
2022-08-14T09:04:45.561Z,8.02
2022-08-14T09:07:20.204Z,8.32
2022-08-14T09:09:54.059Z,8.65
2022-08-14T09:12:26.794Z,7.72
2022-08-14T09:14:54.626Z,8.48
2022-08-14T09:17:25.660Z,9.32
2022-08-14T09:19:53.581Z,8.52
2022-08-14T09:22:35.825Z,8.00
2022-08-14T09:25:08.259Z,8.20
2022-08-14T09:27:37.967Z,7.97
2022-08-14T09:30:31.074Z,8.77
2022-08-14T09:33:06.089Z,8.80
2022-08-14T09:35:44.199Z,7.38
2022-08-14T09:38:28.278Z,8.05
2022-08-14T09:41:23.273Z,8.25
2022-08-14T09:44:06.300Z,8.27
2022-08-14T09:46:34.466Z,8.93
2022-08-14T09:49:06.067Z,8.00
2022-08-14T09:51:45.197Z,8.55
2022-08-14T09:54:23.369Z,8.80
2022-08-14T09:56:56.683Z,8.25
2022-08-14T09:59:27.994Z,7.50
2022-08-14T10:01:57.063Z,7.32
2022-08-14T10:04:35.984Z,7.40
2022-08-14T10:07:05.529Z,7.95
2022-08-14T10:09:34.596Z,7.75
2022-08-14T10:12:04.212Z,7.50
2022-08-14T10:14:36.576Z,7.43
2022-08-14T10:17:06.962Z,6.70
2022-08-14T10:19:36.567Z,6.72
2022-08-14T10:23:12.554Z,7.00
2022-08-14T10:24:57.550Z,6.90
2022-08-14T10:27:27.085Z,6.90
2022-08-14T10:30:00.887Z,6.35
2022-08-14T10:32:36.524Z,6.03
2022-08-14T10:35:16.474Z,6.72
2022-08-14T10:37:49.462Z,5.63
2022-08-14T10:40:38.855Z,6.88
2022-08-14T10:43:27.624Z,5.85
2022-08-14T10:46:58.902Z,5.25
2022-08-14T10:48:57.913Z,6.15
2022-08-14T10:51:26.266Z,5.55
2022-08-14T10:53:57.335Z,5.60
2022-08-14T10:56:35.126Z,5.90
2022-08-14T10:59:08.141Z,5.97
2022-08-14T11:01:38.388Z,6.10
2022-08-14T11:04:20.152Z,5.32
2022-08-14T11:06:53.423Z,5.18
2022-08-14T11:09:20.045Z,5.20
2022-08-14T11:11:55.573Z,5.82
2022-08-14T11:14:23.064Z,4.95
2022-08-14T11:19:25.019Z,5.10
2022-08-14T11:21:56.074Z,4.93
2022-08-14T11:24:55.008Z,4.85
2022-08-14T11:27:19.502Z,5.38
2022-08-14T11:32:21.887Z,4.68
2022-08-14T11:34:48.798Z,5.37
2022-08-14T11:37:23.593Z,4.90
2022-08-14T11:39:55.906Z,4.78
2022-08-14T11:42:58.231Z,5.20
2022-08-14T11:45:17.146Z,4.75
2022-08-14T11:48:10.661Z,4.90
2022-08-14T11:50:37.328Z,5.70
2022-08-14T11:53:07.096Z,4.78
2022-08-14T11:55:38.117Z,4.53
2022-08-14T11:58:09.424Z,4.70
2022-08-14T12:00:48.379Z,4.50
2022-08-14T12:03:17.804Z,4.80
2022-08-14T12:05:49.140Z,4.35
2022-08-14T12:08:16.150Z,4.38
2022-08-14T12:10:57.508Z,5.18
2022-08-14T12:13:30.913Z,4.72
2022-08-14T12:16:01.102Z,4.78
2022-08-14T12:18:39.432Z,4.78
2022-08-14T12:21:21.466Z,4.53
2022-08-14T12:24:01.870Z,4.85
2022-08-14T12:26:39.883Z,5.13
2022-08-14T12:29:10.245Z,5.00
2022-08-14T12:31:46.726Z,5.32
2022-08-14T12:34:20.351Z,4.82
2022-08-14T12:36:49.894Z,5.20
2022-08-14T12:39:23.873Z,4.40
2022-08-14T12:41:57.002Z,5.22
2022-08-14T12:44:39.107Z,5.22
2022-08-14T12:47:15.270Z,4.80
2022-08-14T12:49:53.377Z,5.20
2022-08-14T12:52:41.697Z,4.78
2022-08-14T12:55:20.944Z,4.50
2022-08-14T12:57:53.348Z,4.75
2022-08-14T13:00:23.974Z,4.75
2022-08-14T13:02:55.417Z,5.10
2022-08-14T13:05:31.169Z,5.32
2022-08-14T13:07:59.486Z,5.10
2022-08-14T13:10:51.516Z,4.70
2022-08-14T13:13:17.310Z,5.10
2022-08-14T13:15:45.805Z,5.13
2022-08-14T13:18:14.544Z,5.03
2022-08-14T13:20:51.847Z,4.63
2022-08-14T13:23:32.168Z,4.72
2022-08-14T13:25:59.547Z,4.85
2022-08-14T13:28:32.996Z,4.78
2022-08-14T13:31:10.935Z,4.68
2022-08-14T13:33:38.062Z,4.88
2022-08-14T13:36:08.811Z,4.65
2022-08-14T13:38:35.315Z,4.47
2022-08-14T13:41:02.778Z,5.20
2022-08-14T13:43:31.658Z,5.20
2022-08-14T13:46:03.861Z,4.45
2022-08-14T13:48:33.071Z,4.88
2022-08-14T13:51:05.841Z,4.93
2022-08-14T13:53:52.602Z,5.25
2022-08-14T13:56:36.340Z,4.80
2022-08-14T13:59:04.601Z,5.22
2022-08-14T14:01:42.860Z,4.15
2022-08-14T14:04:19.279Z,4.60
2022-08-14T14:06:48.820Z,4.40
2022-08-14T14:09:20.749Z,5.05
2022-08-14T14:11:47.800Z,5.15
2022-08-14T14:14:44.832Z,4.90
2022-08-14T14:17:12.431Z,4.70
2022-08-14T14:19:41.335Z,5.03
2022-08-14T14:22:09.766Z,5.10
2022-08-14T14:24:36.729Z,5.10
2022-08-14T14:27:30.065Z,5.70
2022-08-14T14:29:55.721Z,5.40
2022-08-14T14:32:32.194Z,5.00
2022-08-14T14:35:02.706Z,5.07
2022-08-14T14:37:30.567Z,4.93
2022-08-14T14:40:54.291Z,5.43
2022-08-14T14:42:48.873Z,4.80
2022-08-14T14:45:22.185Z,5.07
2022-08-14T14:47:59.409Z,5.23
2022-08-14T14:50:26.501Z,5.00
2022-08-14T14:52:54.008Z,4.90
2022-08-14T14:55:59.562Z,5.35
2022-08-14T14:58:30.650Z,4.85
2022-08-14T15:01:03.516Z,4.22
2022-08-14T15:03:36.743Z,4.68
2022-08-14T15:06:03.945Z,4.72
2022-08-14T15:08:56.487Z,4.22
2022-08-14T15:11:19.847Z,4.10
2022-08-14T15:13:53.350Z,4.22
2022-08-14T15:16:20.461Z,4.30
2022-08-14T15:18:49.198Z,4.25
2022-08-14T15:21:15.956Z,4.40
2022-08-14T15:23:44.843Z,4.65
2022-08-14T15:26:30.870Z,4.15
2022-08-14T15:29:05.823Z,4.28
2022-08-14T15:31:36.270Z,3.88
2022-08-14T15:34:44.468Z,4.20
2022-08-14T15:37:02.000Z,4.50
2022-08-14T15:39:35.899Z,4.65
2022-08-14T15:42:15.643Z,3.85
2022-08-14T15:44:56.595Z,3.67
2022-08-14T15:47:28.412Z,3.95
2022-08-14T15:50:00.669Z,3.75
2022-08-14T15:52:32.688Z,3.58
2022-08-14T15:55:09.548Z,3.85
2022-08-14T15:57:36.971Z,3.67
2022-08-14T16:00:43.355Z,3.95
2022-08-14T16:03:15.621Z,3.63
2022-08-14T16:05:43.382Z,3.75
2022-08-14T16:08:27.023Z,3.40
2022-08-14T16:10:56.434Z,4.05
2022-08-14T16:13:41.431Z,4.05
2022-08-14T16:16:47.094Z,4.35
2022-08-14T16:19:15.889Z,3.35
2022-08-14T16:22:02.752Z,3.88
2022-08-14T16:24:33.236Z,3.85
2022-08-14T16:27:01.470Z,4.03
2022-08-14T16:29:31.038Z,3.33
2022-08-14T16:32:01.741Z,3.67
2022-08-14T16:34:50.104Z,4.25
2022-08-14T16:37:21.125Z,3.20
2022-08-14T16:39:49.432Z,3.67
2022-08-14T16:42:39.139Z,3.80
2022-08-14T16:47:38.207Z,3.45
2022-08-14T16:50:10.472Z,3.65
2022-08-14T16:52:44.172Z,3.47
2022-08-14T16:55:13.962Z,4.07
2022-08-14T16:57:49.997Z,3.78
2022-08-14T17:00:28.508Z,4.00
2022-08-14T17:03:04.702Z,3.85
2022-08-14T17:05:41.598Z,4.05
2022-08-14T17:08:31.566Z,3.50
2022-08-14T17:10:57.221Z,3.70
2022-08-14T17:13:27.441Z,3.60
2022-08-14T17:16:25.439Z,3.25
2022-08-14T17:19:00.846Z,3.08
2022-08-14T17:21:38.214Z,3.55
2022-08-14T17:24:58.317Z,3.33
2022-08-14T17:27:04.474Z,3.30
2022-08-14T17:29:34.820Z,3.75
2022-08-14T17:32:22.480Z,3.20
2022-08-14T17:34:57.837Z,3.28
2022-08-14T17:37:34.319Z,3.85
2022-08-14T17:40:15.113Z,3.33
2022-08-14T17:42:45.684Z,3.45
2022-08-14T17:45:26.782Z,3.35
2022-08-14T17:47:56.958Z,3.55
2022-08-14T17:50:58.745Z,3.67
2022-08-14T17:53:25.722Z,3.85
2022-08-14T17:56:02.897Z,3.92
2022-08-14T17:58:38.725Z,3.53
2022-08-14T18:01:13.294Z,3.88
2022-08-14T18:03:50.180Z,3.25
2022-08-14T18:06:39.399Z,3.60
2022-08-14T18:09:24.639Z,4.07
2022-08-14T18:11:55.149Z,3.90
2022-08-14T18:14:32.251Z,4.25
2022-08-14T18:17:01.034Z,3.83
2022-08-14T18:19:30.021Z,3.55
2022-08-14T18:21:58.989Z,4.18
2022-08-14T18:24:30.322Z,3.50
2022-08-14T18:27:08.976Z,3.97
2022-08-14T18:29:42.702Z,3.50
2022-08-14T18:32:27.639Z,4.30
2022-08-14T18:35:11.039Z,4.32
2022-08-14T18:37:41.187Z,4.75
2022-08-14T18:40:17.637Z,4.65
2022-08-14T18:42:59.232Z,4.05
2022-08-14T18:45:32.996Z,4.63
2022-08-14T18:48:18.614Z,4.03
2022-08-14T18:51:02.269Z,4.57
2022-08-14T18:53:34.398Z,4.70
2022-08-14T18:56:09.636Z,4.35
2022-08-14T18:58:48.448Z,4.80
2022-08-14T19:01:26.520Z,5.43
2022-08-14T19:03:57.458Z,5.67
2022-08-14T19:06:42.821Z,6.43
2022-08-14T19:09:50.586Z,5.88
2022-08-14T19:12:56.536Z,5.68
2022-08-14T19:15:27.294Z,5.38
2022-08-14T19:18:13.881Z,6.05
2022-08-14T19:21:13.338Z,6.03
2022-08-14T19:23:42.688Z,5.78
2022-08-14T19:26:36.254Z,6.20
2022-08-14T19:29:37.724Z,5.75
2022-08-14T19:32:38.933Z,6.00
2022-08-14T19:35:49.645Z,5.47
2022-08-14T19:38:47.837Z,5.85
2022-08-14T19:41:21.037Z,5.88
2022-08-14T19:43:55.729Z,5.97
2022-08-14T19:46:39.114Z,5.70
2022-08-14T19:49:23.035Z,5.90
2022-08-14T19:51:50.121Z,6.05
2022-08-14T19:54:17.115Z,6.25
2022-08-14T19:56:45.709Z,6.35
2022-08-14T19:59:19.134Z,6.85
2022-08-14T20:01:51.132Z,6.90
2022-08-14T20:04:46.179Z,6.47
2022-08-14T20:07:27.394Z,5.85
2022-08-14T20:11:04.857Z,6.38
2022-08-14T20:13:14.005Z,6.53
2022-08-14T20:15:47.673Z,6.78
2022-08-14T20:18:45.873Z,6.25
2022-08-14T20:21:05.147Z,6.00
2022-08-14T20:23:38.463Z,6.00
2022-08-14T20:26:31.521Z,7.22
2022-08-14T20:29:04.639Z,7.93
2022-08-14T20:31:37.633Z,6.57
2022-08-14T20:34:18.957Z,5.80
2022-08-14T20:37:09.808Z,7.00
2022-08-14T20:39:54.407Z,7.00
2022-08-14T20:42:43.805Z,7.07
2022-08-14T20:45:21.480Z,6.63
2022-08-14T20:47:56.449Z,6.97
2022-08-14T20:50:28.749Z,6.95
2022-08-14T20:52:57.334Z,7.00
2022-08-14T20:55:27.585Z,6.70
2022-08-14T20:57:58.977Z,6.90
2022-08-14T21:00:51.672Z,7.97
2022-08-14T21:03:56.824Z,6.35
2022-08-14T21:07:22.899Z,7.47
2022-08-14T21:10:04.552Z,6.60
2022-08-14T21:12:33.688Z,7.78
2022-08-14T21:14:59.623Z,7.80
2022-08-14T21:17:27.124Z,7.75
2022-08-14T21:19:53.837Z,7.30
2022-08-14T21:22:20.271Z,8.43
2022-08-14T21:24:47.480Z,7.28
2022-08-14T21:27:21.986Z,7.85
2022-08-14T21:29:56.052Z,7.53
2022-08-14T21:32:35.045Z,7.55
2022-08-14T21:35:09.064Z,8.00
2022-08-14T21:37:43.657Z,7.70
2022-08-14T21:40:39.853Z,8.30
2022-08-14T21:43:00.950Z,8.20
2022-08-14T21:45:27.692Z,7.68
2022-08-14T21:47:56.339Z,8.65
2022-08-14T21:51:00.024Z,7.93
2022-08-14T21:53:10.527Z,8.55
2022-08-14T21:55:37.354Z,8.07
2022-08-14T21:58:53.150Z,7.80
2022-08-14T22:00:51.523Z,8.73
2022-08-14T22:03:23.425Z,7.95
2022-08-14T22:05:55.886Z,8.68
2022-08-14T22:08:26.547Z,8.48
2022-08-14T22:10:54.958Z,8.60
2022-08-14T22:13:24.618Z,8.38
2022-08-14T22:15:54.344Z,8.20
2022-08-14T22:18:25.467Z,8.27
2022-08-14T22:20:53.893Z,8.20
2022-08-14T22:23:23.810Z,8.90
2022-08-14T22:25:51.182Z,8.38
2022-08-14T22:28:25.168Z,7.93
2022-08-14T22:30:54.906Z,8.80
2022-08-14T22:33:26.600Z,8.95
2022-08-14T22:35:57.746Z,9.48
2022-08-14T22:38:36.417Z,8.30
2022-08-14T22:41:25.839Z,9.07
2022-08-14T22:43:53.675Z,8.95
2022-08-14T22:46:21.200Z,8.80
2022-08-14T22:48:49.174Z,9.13
2022-08-14T22:51:17.992Z,9.07
2022-08-14T22:53:48.455Z,9.05
2022-08-14T22:56:20.133Z,8.98
2022-08-14T22:58:53.857Z,9.63
2022-08-14T23:01:57.105Z,9.52
2022-08-14T23:04:35.308Z,9.13
2022-08-14T23:07:21.967Z,10.10
2022-08-14T23:09:57.614Z,8.82
2022-08-14T23:12:47.415Z,9.20
2022-08-14T23:15:23.592Z,9.27
2022-08-14T23:17:51.063Z,9.45
2022-08-14T23:20:21.266Z,9.73
2022-08-14T23:22:52.380Z,10.18
2022-08-14T23:25:56.903Z,9.48
2022-08-14T23:28:34.417Z,9.57
2022-08-14T23:30:55.347Z,9.70
2022-08-14T23:33:21.895Z,10.02
2022-08-14T23:35:58.846Z,10.70
2022-08-14T23:38:31.059Z,9.65
2022-08-14T23:40:58.804Z,10.13
2022-08-14T23:43:28.270Z,10.65
2022-08-14T23:45:57.854Z,10.98
2022-08-14T23:48:27.983Z,9.52
2022-08-14T23:53:47.428Z,9.82
2022-08-14T23:56:30.412Z,10.00
2022-08-14T23:59:00.970Z,10.38
